sensor_id;sensor_type;location;lat;lon;timestamp;P1;durP1;ratioP1;P2;durP2;ratioP2
75614;SDS011;64199;48.578;-4.520;2023-05-07T00:00:40;1.75;;;1.35;;
75614;SDS011;64199;48.578;-4.520;2023-05-07T00:03:07;1.25;;;1.15;;
75614;SDS011;64199;48.578;-4.520;2023-05-07T00:05:34;1.25;;;1.15;;
75614;SDS011;64199;48.578;-4.520;2023-05-07T00:08:00;1.20;;;0.98;;
75614;SDS011;64199;48.578;-4.520;2023-05-07T00:10:30;1.10;;;1.00;;
75614;SDS011;64199;48.578;-4.520;2023-05-07T00:12:59;1.88;;;1.30;;
75614;SDS011;64199;48.578;-4.520;2023-05-07T00:15:25;3.45;;;1.35;;
75614;SDS011;64199;48.578;-4.520;2023-05-07T00:17:54;1.30;;;1.10;;
75614;SDS011;64199;48.578;-4.520;2023-05-07T00:20:24;2.72;;;1.42;;
75614;SDS011;64199;48.578;-4.520;2023-05-07T00:22:51;3.55;;;1.50;;
75614;SDS011;64199;48.578;-4.520;2023-05-07T00:25:18;1.27;;;1.17;;
75614;SDS011;64199;48.578;-4.520;2023-05-07T00:28:11;1.60;;;1.50;;
75614;SDS011;64199;48.578;-4.520;2023-05-07T00:30:37;2.03;;;1.30;;
75614;SDS011;64199;48.578;-4.520;2023-05-07T00:33:09;1.70;;;1.38;;
75614;SDS011;64199;48.578;-4.520;2023-05-07T00:35:46;1.20;;;1.10;;
75614;SDS011;64199;48.578;-4.520;2023-05-07T00:38:12;1.77;;;1.67;;
75614;SDS011;64199;48.578;-4.520;2023-05-07T00:40:38;1.38;;;1.27;;
75614;SDS011;64199;48.578;-4.520;2023-05-07T00:43:05;1.42;;;1.25;;
75614;SDS011;64199;48.578;-4.520;2023-05-07T00:45:32;2.25;;;1.58;;
75614;SDS011;64199;48.578;-4.520;2023-05-07T00:48:00;1.50;;;1.20;;
75614;SDS011;64199;48.578;-4.520;2023-05-07T00:50:28;1.63;;;1.30;;
75614;SDS011;64199;48.578;-4.520;2023-05-07T00:52:57;3.17;;;1.40;;
75614;SDS011;64199;48.578;-4.520;2023-05-07T00:55:28;1.33;;;1.23;;
75614;SDS011;64199;48.578;-4.520;2023-05-07T00:57:55;1.40;;;1.30;;
75614;SDS011;64199;48.578;-4.520;2023-05-07T01:00:21;2.80;;;1.17;;
75614;SDS011;64199;48.578;-4.520;2023-05-07T01:02:47;1.50;;;1.30;;
75614;SDS011;64199;48.578;-4.520;2023-05-07T01:05:14;0.90;;;0.90;;
75614;SDS011;64199;48.578;-4.520;2023-05-07T01:07:42;1.85;;;1.38;;
75614;SDS011;64199;48.578;-4.520;2023-05-07T01:10:09;3.47;;;1.40;;
75614;SDS011;64199;48.578;-4.520;2023-05-07T01:12:36;1.55;;;1.45;;
75614;SDS011;64199;48.578;-4.520;2023-05-07T01:15:07;1.50;;;1.40;;
75614;SDS011;64199;48.578;-4.520;2023-05-07T01:17:42;3.65;;;1.30;;
75614;SDS011;64199;48.578;-4.520;2023-05-07T01:20:10;1.23;;;1.13;;
75614;SDS011;64199;48.578;-4.520;2023-05-07T01:22:37;1.67;;;1.15;;
75614;SDS011;64199;48.578;-4.520;2023-05-07T01:25:08;2.72;;;1.30;;
75614;SDS011;64199;48.578;-4.520;2023-05-07T01:27:35;0.93;;;0.93;;
75614;SDS011;64199;48.578;-4.520;2023-05-07T01:30:03;2.90;;;1.40;;
75614;SDS011;64199;48.578;-4.520;2023-05-07T01:35:40;1.20;;;1.13;;
75614;SDS011;64199;48.578;-4.520;2023-05-07T01:38:11;1.30;;;1.20;;
75614;SDS011;64199;48.578;-4.520;2023-05-07T01:40:37;1.20;;;1.10;;
75614;SDS011;64199;48.578;-4.520;2023-05-07T01:43:07;2.67;;;1.45;;
75614;SDS011;64199;48.578;-4.520;2023-05-07T01:45:34;3.05;;;1.50;;
75614;SDS011;64199;48.578;-4.520;2023-05-07T01:48:07;1.33;;;1.20;;
75614;SDS011;64199;48.578;-4.520;2023-05-07T01:50:39;2.80;;;1.20;;
75614;SDS011;64199;48.578;-4.520;2023-05-07T01:53:06;1.42;;;1.33;;
75614;SDS011;64199;48.578;-4.520;2023-05-07T01:55:36;1.02;;;0.98;;
75614;SDS011;64199;48.578;-4.520;2023-05-07T01:58:03;1.15;;;1.05;;
75614;SDS011;64199;48.578;-4.520;2023-05-07T02:00:30;1.27;;;1.08;;
75614;SDS011;64199;48.578;-4.520;2023-05-07T02:02:57;1.20;;;1.10;;
75614;SDS011;64199;48.578;-4.520;2023-05-07T02:05:24;1.27;;;1.17;;
75614;SDS011;64199;48.578;-4.520;2023-05-07T02:07:52;3.78;;;1.30;;
75614;SDS011;64199;48.578;-4.520;2023-05-07T02:10:18;1.45;;;1.35;;
75614;SDS011;64199;48.578;-4.520;2023-05-07T02:12:44;1.20;;;1.10;;
75614;SDS011;64199;48.578;-4.520;2023-05-07T02:15:18;3.22;;;1.20;;
75614;SDS011;64199;48.578;-4.520;2023-05-07T02:20:29;1.02;;;1.02;;
75614;SDS011;64199;48.578;-4.520;2023-05-07T02:22:56;1.73;;;1.40;;
75614;SDS011;64199;48.578;-4.520;2023-05-07T02:25:23;2.38;;;1.17;;
75614;SDS011;64199;48.578;-4.520;2023-05-07T02:27:49;1.65;;;1.30;;
75614;SDS011;64199;48.578;-4.520;2023-05-07T02:30:15;1.10;;;1.02;;
75614;SDS011;64199;48.578;-4.520;2023-05-07T02:32:42;1.55;;;1.27;;
75614;SDS011;64199;48.578;-4.520;2023-05-07T02:35:11;1.30;;;1.20;;
75614;SDS011;64199;48.578;-4.520;2023-05-07T02:37:37;1.00;;;0.95;;
75614;SDS011;64199;48.578;-4.520;2023-05-07T02:40:06;1.30;;;1.20;;
75614;SDS011;64199;48.578;-4.520;2023-05-07T02:42:33;1.00;;;1.00;;
75614;SDS011;64199;48.578;-4.520;2023-05-07T02:44:58;0.98;;;0.93;;
75614;SDS011;64199;48.578;-4.520;2023-05-07T02:47:25;1.13;;;1.00;;
75614;SDS011;64199;48.578;-4.520;2023-05-07T02:52:35;2.08;;;1.20;;
75614;SDS011;64199;48.578;-4.520;2023-05-07T02:55:02;1.20;;;1.10;;
75614;SDS011;64199;48.578;-4.520;2023-05-07T02:57:34;1.42;;;1.33;;
75614;SDS011;64199;48.578;-4.520;2023-05-07T03:00:12;0.80;;;0.80;;
75614;SDS011;64199;48.578;-4.520;2023-05-07T03:02:39;1.73;;;1.20;;
75614;SDS011;64199;48.578;-4.520;2023-05-07T03:05:09;0.80;;;0.80;;
75614;SDS011;64199;48.578;-4.520;2023-05-07T03:07:39;0.90;;;0.90;;
75614;SDS011;64199;48.578;-4.520;2023-05-07T03:10:09;1.25;;;1.00;;
75614;SDS011;64199;48.578;-4.520;2023-05-07T03:12:36;0.98;;;0.90;;
75614;SDS011;64199;48.578;-4.520;2023-05-07T03:17:40;1.02;;;1.00;;
75614;SDS011;64199;48.578;-4.520;2023-05-07T03:20:07;0.85;;;0.85;;
75614;SDS011;64199;48.578;-4.520;2023-05-07T03:22:37;1.10;;;1.00;;
75614;SDS011;64199;48.578;-4.520;2023-05-07T03:25:03;0.95;;;0.95;;
75614;SDS011;64199;48.578;-4.520;2023-05-07T03:27:33;1.20;;;1.10;;
75614;SDS011;64199;48.578;-4.520;2023-05-07T03:30:03;1.25;;;1.15;;
75614;SDS011;64199;48.578;-4.520;2023-05-07T03:32:38;1.15;;;1.00;;
75614;SDS011;64199;48.578;-4.520;2023-05-07T03:35:05;1.48;;;1.08;;
75614;SDS011;64199;48.578;-4.520;2023-05-07T03:37:32;1.35;;;1.20;;
75614;SDS011;64199;48.578;-4.520;2023-05-07T03:39:59;1.25;;;1.10;;
75614;SDS011;64199;48.578;-4.520;2023-05-07T03:42:26;1.00;;;1.00;;
75614;SDS011;64199;48.578;-4.520;2023-05-07T03:44:54;0.90;;;0.90;;
75614;SDS011;64199;48.578;-4.520;2023-05-07T03:47:20;1.17;;;1.08;;
75614;SDS011;64199;48.578;-4.520;2023-05-07T03:49:47;1.17;;;1.08;;
75614;SDS011;64199;48.578;-4.520;2023-05-07T03:52:14;0.90;;;0.90;;
75614;SDS011;64199;48.578;-4.520;2023-05-07T03:54:40;0.85;;;0.85;;
75614;SDS011;64199;48.578;-4.520;2023-05-07T03:57:07;1.40;;;1.15;;
75614;SDS011;64199;48.578;-4.520;2023-05-07T03:59:33;1.02;;;1.00;;
75614;SDS011;64199;48.578;-4.520;2023-05-07T04:01:59;1.10;;;1.00;;
75614;SDS011;64199;48.578;-4.520;2023-05-07T04:04:29;1.17;;;0.73;;
75614;SDS011;64199;48.578;-4.520;2023-05-07T04:06:58;0.85;;;0.85;;
75614;SDS011;64199;48.578;-4.520;2023-05-07T04:09:25;1.10;;;1.00;;
75614;SDS011;64199;48.578;-4.520;2023-05-07T04:11:51;1.45;;;1.00;;
75614;SDS011;64199;48.578;-4.520;2023-05-07T04:14:17;0.77;;;0.77;;
75614;SDS011;64199;48.578;-4.520;2023-05-07T04:16:43;0.95;;;0.82;;
75614;SDS011;64199;48.578;-4.520;2023-05-07T04:19:09;1.05;;;1.02;;
75614;SDS011;64199;48.578;-4.520;2023-05-07T04:21:35;0.70;;;0.70;;
75614;SDS011;64199;48.578;-4.520;2023-05-07T04:24:07;0.90;;;0.90;;
75614;SDS011;64199;48.578;-4.520;2023-05-07T04:26:34;0.90;;;0.90;;
75614;SDS011;64199;48.578;-4.520;2023-05-07T04:29:01;1.15;;;1.05;;
75614;SDS011;64199;48.578;-4.520;2023-05-07T04:31:31;1.00;;;1.00;;
75614;SDS011;64199;48.578;-4.520;2023-05-07T04:34:09;0.85;;;0.85;;
75614;SDS011;64199;48.578;-4.520;2023-05-07T04:36:41;0.73;;;0.73;;
75614;SDS011;64199;48.578;-4.520;2023-05-07T04:39:08;0.85;;;0.85;;
75614;SDS011;64199;48.578;-4.520;2023-05-07T04:41:35;2.30;;;1.00;;
75614;SDS011;64199;48.578;-4.520;2023-05-07T04:44:05;1.23;;;1.13;;
75614;SDS011;64199;48.578;-4.520;2023-05-07T04:46:49;0.80;;;0.73;;
75614;SDS011;64199;48.578;-4.520;2023-05-07T04:49:15;0.70;;;0.70;;
75614;SDS011;64199;48.578;-4.520;2023-05-07T04:52:02;0.98;;;0.98;;
75614;SDS011;64199;48.578;-4.520;2023-05-07T04:54:29;0.82;;;0.82;;
75614;SDS011;64199;48.578;-4.520;2023-05-07T04:56:58;1.25;;;0.90;;
75614;SDS011;64199;48.578;-4.520;2023-05-07T04:59:24;1.05;;;0.90;;
75614;SDS011;64199;48.578;-4.520;2023-05-07T05:01:49;0.68;;;0.68;;
75614;SDS011;64199;48.578;-4.520;2023-05-07T05:04:16;0.70;;;0.70;;
75614;SDS011;64199;48.578;-4.520;2023-05-07T05:06:43;0.80;;;0.80;;
75614;SDS011;64199;48.578;-4.520;2023-05-07T05:09:14;1.10;;;1.00;;
75614;SDS011;64199;48.578;-4.520;2023-05-07T05:11:42;1.07;;;1.07;;
75614;SDS011;64199;48.578;-4.520;2023-05-07T05:14:08;1.05;;;0.95;;
75614;SDS011;64199;48.578;-4.520;2023-05-07T05:16:34;1.63;;;0.88;;
75614;SDS011;64199;48.578;-4.520;2023-05-07T05:19:01;2.42;;;0.90;;
75614;SDS011;64199;48.578;-4.520;2023-05-07T05:21:27;1.48;;;0.82;;
75614;SDS011;64199;48.578;-4.520;2023-05-07T05:23:54;0.70;;;0.70;;
75614;SDS011;64199;48.578;-4.520;2023-05-07T05:26:21;0.70;;;0.70;;
75614;SDS011;64199;48.578;-4.520;2023-05-07T05:28:47;0.90;;;0.90;;
75614;SDS011;64199;48.578;-4.520;2023-05-07T05:31:14;0.77;;;0.77;;
75614;SDS011;64199;48.578;-4.520;2023-05-07T05:33:42;0.95;;;0.90;;
75614;SDS011;64199;48.578;-4.520;2023-05-07T05:36:11;0.80;;;0.80;;
75614;SDS011;64199;48.578;-4.520;2023-05-07T05:38:38;2.30;;;0.85;;
75614;SDS011;64199;48.578;-4.520;2023-05-07T05:41:05;0.82;;;0.75;;
75614;SDS011;64199;48.578;-4.520;2023-05-07T05:43:31;1.27;;;1.00;;
75614;SDS011;64199;48.578;-4.520;2023-05-07T05:45:57;0.80;;;0.80;;
75614;SDS011;64199;48.578;-4.520;2023-05-07T05:48:24;1.10;;;0.70;;
75614;SDS011;64199;48.578;-4.520;2023-05-07T05:50:50;0.77;;;0.77;;
75614;SDS011;64199;48.578;-4.520;2023-05-07T05:53:20;2.42;;;0.70;;
75614;SDS011;64199;48.578;-4.520;2023-05-07T05:55:51;0.80;;;0.80;;
75614;SDS011;64199;48.578;-4.520;2023-05-07T05:58:17;1.30;;;0.90;;
75614;SDS011;64199;48.578;-4.520;2023-05-07T06:00:44;0.70;;;0.70;;
75614;SDS011;64199;48.578;-4.520;2023-05-07T06:03:12;0.90;;;0.90;;
75614;SDS011;64199;48.578;-4.520;2023-05-07T06:05:39;0.90;;;0.80;;
75614;SDS011;64199;48.578;-4.520;2023-05-07T06:08:04;1.63;;;0.70;;
75614;SDS011;64199;48.578;-4.520;2023-05-07T06:10:30;0.60;;;0.60;;
75614;SDS011;64199;48.578;-4.520;2023-05-07T06:12:58;1.13;;;0.90;;
75614;SDS011;64199;48.578;-4.520;2023-05-07T06:15:26;0.90;;;0.90;;
75614;SDS011;64199;48.578;-4.520;2023-05-07T06:17:52;1.20;;;0.90;;
75614;SDS011;64199;48.578;-4.520;2023-05-07T06:20:19;1.10;;;1.00;;
75614;SDS011;64199;48.578;-4.520;2023-05-07T06:22:45;0.75;;;0.75;;
75614;SDS011;64199;48.578;-4.520;2023-05-07T06:25:12;0.75;;;0.75;;
75614;SDS011;64199;48.578;-4.520;2023-05-07T06:27:38;0.80;;;0.80;;
75614;SDS011;64199;48.578;-4.520;2023-05-07T06:30:06;0.80;;;0.80;;
75614;SDS011;64199;48.578;-4.520;2023-05-07T06:32:44;1.45;;;0.90;;
75614;SDS011;64199;48.578;-4.520;2023-05-07T06:35:11;0.73;;;0.73;;
75614;SDS011;64199;48.578;-4.520;2023-05-07T06:37:44;0.65;;;0.65;;
75614;SDS011;64199;48.578;-4.520;2023-05-07T06:40:10;0.98;;;0.90;;
75614;SDS011;64199;48.578;-4.520;2023-05-07T06:42:40;0.63;;;0.63;;
75614;SDS011;64199;48.578;-4.520;2023-05-07T06:45:09;1.10;;;0.90;;
75614;SDS011;64199;48.578;-4.520;2023-05-07T06:47:36;0.82;;;0.82;;
75614;SDS011;64199;48.578;-4.520;2023-05-07T06:50:07;0.80;;;0.80;;
75614;SDS011;64199;48.578;-4.520;2023-05-07T06:52:35;1.17;;;0.70;;
75614;SDS011;64199;48.578;-4.520;2023-05-07T06:55:01;0.63;;;0.63;;
75614;SDS011;64199;48.578;-4.520;2023-05-07T06:57:28;0.50;;;0.50;;
75614;SDS011;64199;48.578;-4.520;2023-05-07T06:59:55;0.77;;;0.70;;
75614;SDS011;64199;48.578;-4.520;2023-05-07T07:02:21;2.15;;;0.70;;
75614;SDS011;64199;48.578;-4.520;2023-05-07T07:04:49;0.80;;;0.80;;
75614;SDS011;64199;48.578;-4.520;2023-05-07T07:07:15;1.25;;;1.10;;
75614;SDS011;64199;48.578;-4.520;2023-05-07T07:09:43;0.80;;;0.80;;
75614;SDS011;64199;48.578;-4.520;2023-05-07T07:12:09;1.00;;;0.90;;
75614;SDS011;64199;48.578;-4.520;2023-05-07T07:14:35;0.93;;;0.80;;
75614;SDS011;64199;48.578;-4.520;2023-05-07T07:17:02;0.65;;;0.63;;
75614;SDS011;64199;48.578;-4.520;2023-05-07T07:19:27;1.02;;;0.70;;
75614;SDS011;64199;48.578;-4.520;2023-05-07T07:22:07;0.88;;;0.88;;
75614;SDS011;64199;48.578;-4.520;2023-05-07T07:24:33;0.55;;;0.55;;
75614;SDS011;64199;48.578;-4.520;2023-05-07T07:26:59;0.70;;;0.70;;
75614;SDS011;64199;48.578;-4.520;2023-05-07T07:29:25;1.30;;;0.80;;
75614;SDS011;64199;48.578;-4.520;2023-05-07T07:31:52;0.90;;;0.75;;
75614;SDS011;64199;48.578;-4.520;2023-05-07T07:34:19;1.02;;;0.85;;
75614;SDS011;64199;48.578;-4.520;2023-05-07T07:36:46;0.70;;;0.70;;
75614;SDS011;64199;48.578;-4.520;2023-05-07T07:39:13;0.70;;;0.70;;
75614;SDS011;64199;48.578;-4.520;2023-05-07T07:41:42;3.08;;;1.00;;
75614;SDS011;64199;48.578;-4.520;2023-05-07T07:44:08;0.95;;;0.95;;
75614;SDS011;64199;48.578;-4.520;2023-05-07T07:46:40;0.90;;;0.77;;
75614;SDS011;64199;48.578;-4.520;2023-05-07T07:49:06;1.45;;;0.80;;
75614;SDS011;64199;48.578;-4.520;2023-05-07T07:51:35;2.45;;;0.80;;
75614;SDS011;64199;48.578;-4.520;2023-05-07T07:54:04;0.75;;;0.70;;
75614;SDS011;64199;48.578;-4.520;2023-05-07T07:59:23;0.95;;;0.80;;
75614;SDS011;64199;48.578;-4.520;2023-05-07T08:01:49;1.70;;;0.77;;
75614;SDS011;64199;48.578;-4.520;2023-05-07T08:04:21;2.08;;;0.70;;
75614;SDS011;64199;48.578;-4.520;2023-05-07T08:06:47;0.50;;;0.50;;
75614;SDS011;64199;48.578;-4.520;2023-05-07T08:09:13;1.00;;;0.80;;
75614;SDS011;64199;48.578;-4.520;2023-05-07T08:11:39;1.55;;;0.77;;
75614;SDS011;64199;48.578;-4.520;2023-05-07T08:14:08;1.13;;;0.70;;
75614;SDS011;64199;48.578;-4.520;2023-05-07T08:16:34;0.50;;;0.50;;
75614;SDS011;64199;48.578;-4.520;2023-05-07T08:19:04;0.70;;;0.52;;
75614;SDS011;64199;48.578;-4.520;2023-05-07T08:21:34;1.02;;;0.43;;
75614;SDS011;64199;48.578;-4.520;2023-05-07T08:24:00;0.50;;;0.50;;
75614;SDS011;64199;48.578;-4.520;2023-05-07T08:26:33;0.55;;;0.52;;
75614;SDS011;64199;48.578;-4.520;2023-05-07T08:29:04;0.40;;;0.40;;
75614;SDS011;64199;48.578;-4.520;2023-05-07T08:31:34;0.85;;;0.60;;
75614;SDS011;64199;48.578;-4.520;2023-05-07T08:34:05;0.65;;;0.50;;
75614;SDS011;64199;48.578;-4.520;2023-05-07T08:36:37;0.45;;;0.45;;
75614;SDS011;64199;48.578;-4.520;2023-05-07T08:39:11;0.47;;;0.47;;
75614;SDS011;64199;48.578;-4.520;2023-05-07T08:41:37;0.40;;;0.40;;
75614;SDS011;64199;48.578;-4.520;2023-05-07T08:44:04;0.82;;;0.40;;
75614;SDS011;64199;48.578;-4.520;2023-05-07T08:46:46;0.35;;;0.35;;
75614;SDS011;64199;48.578;-4.520;2023-05-07T08:49:19;0.40;;;0.40;;
75614;SDS011;64199;48.578;-4.520;2023-05-07T08:51:45;0.60;;;0.60;;
75614;SDS011;64199;48.578;-4.520;2023-05-07T08:54:16;0.82;;;0.40;;
75614;SDS011;64199;48.578;-4.520;2023-05-07T08:56:44;0.52;;;0.52;;
75614;SDS011;64199;48.578;-4.520;2023-05-07T08:59:16;0.60;;;0.50;;
75614;SDS011;64199;48.578;-4.520;2023-05-07T09:01:43;0.75;;;0.40;;
75614;SDS011;64199;48.578;-4.520;2023-05-07T09:06:40;0.65;;;0.60;;
75614;SDS011;64199;48.578;-4.520;2023-05-07T09:09:16;0.43;;;0.43;;
75614;SDS011;64199;48.578;-4.520;2023-05-07T09:11:46;1.10;;;0.60;;
75614;SDS011;64199;48.578;-4.520;2023-05-07T09:14:18;0.70;;;0.50;;
75614;SDS011;64199;48.578;-4.520;2023-05-07T09:16:47;0.40;;;0.40;;
75614;SDS011;64199;48.578;-4.520;2023-05-07T09:19:24;0.50;;;0.40;;
75614;SDS011;64199;48.578;-4.520;2023-05-07T09:21:58;1.73;;;0.75;;
75614;SDS011;64199;48.578;-4.520;2023-05-07T09:24:29;0.73;;;0.43;;
75614;SDS011;64199;48.578;-4.520;2023-05-07T09:27:15;0.75;;;0.50;;
75614;SDS011;64199;48.578;-4.520;2023-05-07T09:29:43;1.10;;;0.60;;
75614;SDS011;64199;48.578;-4.520;2023-05-07T09:32:11;0.85;;;0.55;;
75614;SDS011;64199;48.578;-4.520;2023-05-07T09:34:38;1.27;;;0.40;;
75614;SDS011;64199;48.578;-4.520;2023-05-07T09:37:12;0.47;;;0.47;;
75614;SDS011;64199;48.578;-4.520;2023-05-07T09:39:47;2.30;;;0.60;;
75614;SDS011;64199;48.578;-4.520;2023-05-07T09:42:14;0.50;;;0.50;;
75614;SDS011;64199;48.578;-4.520;2023-05-07T09:44:54;0.70;;;0.60;;
75614;SDS011;64199;48.578;-4.520;2023-05-07T09:47:24;0.40;;;0.40;;
75614;SDS011;64199;48.578;-4.520;2023-05-07T09:50:08;0.82;;;0.50;;
75614;SDS011;64199;48.578;-4.520;2023-05-07T09:52:39;1.27;;;0.60;;
75614;SDS011;64199;48.578;-4.520;2023-05-07T09:55:07;0.40;;;0.40;;
75614;SDS011;64199;48.578;-4.520;2023-05-07T09:57:38;0.95;;;0.63;;
75614;SDS011;64199;48.578;-4.520;2023-05-07T10:00:07;0.47;;;0.47;;
75614;SDS011;64199;48.578;-4.520;2023-05-07T10:02:36;1.67;;;0.70;;
75614;SDS011;64199;48.578;-4.520;2023-05-07T10:05:14;0.43;;;0.40;;
75614;SDS011;64199;48.578;-4.520;2023-05-07T10:07:41;1.70;;;0.60;;
75614;SDS011;64199;48.578;-4.520;2023-05-07T10:10:24;0.68;;;0.63;;
75614;SDS011;64199;48.578;-4.520;2023-05-07T10:12:51;2.33;;;0.68;;
75614;SDS011;64199;48.578;-4.520;2023-05-07T10:15:18;2.25;;;0.60;;
75614;SDS011;64199;48.578;-4.520;2023-05-07T10:17:44;0.43;;;0.43;;
75614;SDS011;64199;48.578;-4.520;2023-05-07T10:20:11;0.63;;;0.43;;
75614;SDS011;64199;48.578;-4.520;2023-05-07T10:22:39;0.82;;;0.70;;
75614;SDS011;64199;48.578;-4.520;2023-05-07T10:25:18;0.57;;;0.57;;
75614;SDS011;64199;48.578;-4.520;2023-05-07T10:27:48;0.85;;;0.60;;
75614;SDS011;64199;48.578;-4.520;2023-05-07T10:32:55;2.13;;;0.50;;
75614;SDS011;64199;48.578;-4.520;2023-05-07T10:35:31;0.50;;;0.50;;
75614;SDS011;64199;48.578;-4.520;2023-05-07T10:38:05;0.82;;;0.50;;
75614;SDS011;64199;48.578;-4.520;2023-05-07T10:40:36;0.70;;;0.70;;
75614;SDS011;64199;48.578;-4.520;2023-05-07T10:43:05;1.00;;;0.60;;
75614;SDS011;64199;48.578;-4.520;2023-05-07T10:45:32;1.00;;;0.40;;
75614;SDS011;64199;48.578;-4.520;2023-05-07T10:50:48;2.45;;;0.70;;
75614;SDS011;64199;48.578;-4.520;2023-05-07T10:53:35;0.50;;;0.50;;
75614;SDS011;64199;48.578;-4.520;2023-05-07T10:58:47;3.58;;;0.70;;
75614;SDS011;64199;48.578;-4.520;2023-05-07T11:01:13;0.63;;;0.35;;
75614;SDS011;64199;48.578;-4.520;2023-05-07T11:06:42;0.45;;;0.45;;
75614;SDS011;64199;48.578;-4.520;2023-05-07T11:15:06;0.80;;;0.50;;
75614;SDS011;64199;48.578;-4.520;2023-05-07T11:17:57;1.58;;;0.50;;
75614;SDS011;64199;48.578;-4.520;2023-05-07T11:26:05;0.55;;;0.50;;
75614;SDS011;64199;48.578;-4.520;2023-05-07T11:28:39;1.25;;;0.93;;
75614;SDS011;64199;48.578;-4.520;2023-05-07T11:31:06;0.68;;;0.40;;
75614;SDS011;64199;48.578;-4.520;2023-05-07T11:33:33;0.52;;;0.52;;
75614;SDS011;64199;48.578;-4.520;2023-05-07T11:36:01;0.73;;;0.60;;
75614;SDS011;64199;48.578;-4.520;2023-05-07T11:38:29;0.40;;;0.40;;
75614;SDS011;64199;48.578;-4.520;2023-05-07T11:41:00;2.35;;;0.50;;
75614;SDS011;64199;48.578;-4.520;2023-05-07T11:43:33;1.75;;;0.47;;
75614;SDS011;64199;48.578;-4.520;2023-05-07T11:46:19;0.40;;;0.40;;
75614;SDS011;64199;48.578;-4.520;2023-05-07T11:48:45;1.00;;;0.60;;
75614;SDS011;64199;48.578;-4.520;2023-05-07T11:51:12;0.52;;;0.52;;
75614;SDS011;64199;48.578;-4.520;2023-05-07T11:53:42;1.42;;;0.70;;
75614;SDS011;64199;48.578;-4.520;2023-05-07T11:56:15;0.57;;;0.50;;
75614;SDS011;64199;48.578;-4.520;2023-05-07T11:58:43;3.40;;;0.63;;
75614;SDS011;64199;48.578;-4.520;2023-05-07T12:01:12;2.03;;;0.40;;
75614;SDS011;64199;48.578;-4.520;2023-05-07T12:03:44;0.60;;;0.60;;
75614;SDS011;64199;48.578;-4.520;2023-05-07T12:06:15;0.40;;;0.40;;
75614;SDS011;64199;48.578;-4.520;2023-05-07T12:08:42;3.67;;;0.70;;
75614;SDS011;64199;48.578;-4.520;2023-05-07T12:11:24;0.88;;;0.60;;
75614;SDS011;64199;48.578;-4.520;2023-05-07T12:13:51;0.73;;;0.40;;
75614;SDS011;64199;48.578;-4.520;2023-05-07T12:16:22;2.57;;;0.60;;
75614;SDS011;64199;48.578;-4.520;2023-05-07T12:18:48;1.77;;;0.60;;
75614;SDS011;64199;48.578;-4.520;2023-05-07T12:21:24;0.77;;;0.50;;
75614;SDS011;64199;48.578;-4.520;2023-05-07T12:23:54;0.40;;;0.40;;
75614;SDS011;64199;48.578;-4.520;2023-05-07T12:26:23;0.77;;;0.60;;
75614;SDS011;64199;48.578;-4.520;2023-05-07T12:28:50;0.60;;;0.60;;
75614;SDS011;64199;48.578;-4.520;2023-05-07T12:31:16;0.50;;;0.47;;
75614;SDS011;64199;48.578;-4.520;2023-05-07T12:33:42;0.80;;;0.52;;
75614;SDS011;64199;48.578;-4.520;2023-05-07T12:36:08;1.05;;;0.50;;
75614;SDS011;64199;48.578;-4.520;2023-05-07T12:38:35;0.77;;;0.50;;
75614;SDS011;64199;48.578;-4.520;2023-05-07T12:41:05;0.82;;;0.60;;
75614;SDS011;64199;48.578;-4.520;2023-05-07T12:43:33;0.60;;;0.40;;
75614;SDS011;64199;48.578;-4.520;2023-05-07T12:46:01;0.50;;;0.50;;
75614;SDS011;64199;48.578;-4.520;2023-05-07T12:48:32;2.65;;;0.47;;
75614;SDS011;64199;48.578;-4.520;2023-05-07T12:51:02;3.58;;;0.60;;
75614;SDS011;64199;48.578;-4.520;2023-05-07T12:53:29;0.70;;;0.45;;
75614;SDS011;64199;48.578;-4.520;2023-05-07T12:55:57;0.50;;;0.50;;
75614;SDS011;64199;48.578;-4.520;2023-05-07T12:58:25;1.38;;;0.75;;
75614;SDS011;64199;48.578;-4.520;2023-05-07T13:00:53;0.40;;;0.40;;
75614;SDS011;64199;48.578;-4.520;2023-05-07T13:03:27;1.73;;;0.60;;
75614;SDS011;64199;48.578;-4.520;2023-05-07T13:06:04;0.90;;;0.70;;
75614;SDS011;64199;48.578;-4.520;2023-05-07T13:08:33;0.47;;;0.47;;
75614;SDS011;64199;48.578;-4.520;2023-05-07T13:11:02;1.88;;;0.50;;
75614;SDS011;64199;48.578;-4.520;2023-05-07T13:13:48;2.80;;;0.70;;
75614;SDS011;64199;48.578;-4.520;2023-05-07T13:16:17;1.13;;;0.60;;
75614;SDS011;64199;48.578;-4.520;2023-05-07T13:18:46;0.90;;;0.52;;
75614;SDS011;64199;48.578;-4.520;2023-05-07T13:21:15;1.10;;;0.73;;
75614;SDS011;64199;48.578;-4.520;2023-05-07T13:23:45;2.95;;;0.73;;
75614;SDS011;64199;48.578;-4.520;2023-05-07T13:26:19;1.60;;;0.70;;
75614;SDS011;64199;48.578;-4.520;2023-05-07T13:28:55;1.77;;;0.70;;
75614;SDS011;64199;48.578;-4.520;2023-05-07T13:31:24;1.08;;;0.60;;
75614;SDS011;64199;48.578;-4.520;2023-05-07T13:33:51;0.88;;;0.70;;
75614;SDS011;64199;48.578;-4.520;2023-05-07T13:36:18;1.67;;;0.70;;
75614;SDS011;64199;48.578;-4.520;2023-05-07T13:38:44;2.47;;;0.55;;
75614;SDS011;64199;48.578;-4.520;2023-05-07T13:41:10;1.27;;;0.70;;
75614;SDS011;64199;48.578;-4.520;2023-05-07T13:43:37;1.77;;;0.55;;
75614;SDS011;64199;48.578;-4.520;2023-05-07T13:46:06;4.22;;;0.68;;
75614;SDS011;64199;48.578;-4.520;2023-05-07T13:48:35;0.47;;;0.47;;
75614;SDS011;64199;48.578;-4.520;2023-05-07T13:51:01;1.55;;;0.50;;
75614;SDS011;64199;48.578;-4.520;2023-05-07T13:53:33;0.60;;;0.50;;
75614;SDS011;64199;48.578;-4.520;2023-05-07T13:56:01;2.15;;;0.70;;
75614;SDS011;64199;48.578;-4.520;2023-05-07T13:58:35;0.50;;;0.50;;
75614;SDS011;64199;48.578;-4.520;2023-05-07T14:01:02;0.75;;;0.60;;
75614;SDS011;64199;48.578;-4.520;2023-05-07T14:03:31;0.50;;;0.50;;
75614;SDS011;64199;48.578;-4.520;2023-05-07T14:08:26;2.35;;;0.45;;
75614;SDS011;64199;48.578;-4.520;2023-05-07T14:10:58;1.50;;;0.60;;
75614;SDS011;64199;48.578;-4.520;2023-05-07T14:13:30;0.95;;;0.40;;
75614;SDS011;64199;48.578;-4.520;2023-05-07T14:16:03;0.88;;;0.60;;
75614;SDS011;64199;48.578;-4.520;2023-05-07T14:18:30;0.40;;;0.40;;
75614;SDS011;64199;48.578;-4.520;2023-05-07T14:20:58;1.30;;;0.50;;
75614;SDS011;64199;48.578;-4.520;2023-05-07T14:23:27;0.57;;;0.47;;
75614;SDS011;64199;48.578;-4.520;2023-05-07T14:25:54;0.98;;;0.50;;
75614;SDS011;64199;48.578;-4.520;2023-05-07T14:28:22;0.30;;;0.30;;
75614;SDS011;64199;48.578;-4.520;2023-05-07T14:30:50;0.50;;;0.33;;
75614;SDS011;64199;48.578;-4.520;2023-05-07T14:33:19;0.45;;;0.43;;
75614;SDS011;64199;48.578;-4.520;2023-05-07T14:35:50;1.75;;;0.50;;
75614;SDS011;64199;48.578;-4.520;2023-05-07T14:38:29;0.50;;;0.50;;
75614;SDS011;64199;48.578;-4.520;2023-05-07T14:40:58;0.80;;;0.43;;
75614;SDS011;64199;48.578;-4.520;2023-05-07T14:43:25;0.30;;;0.30;;
75614;SDS011;64199;48.578;-4.520;2023-05-07T14:45:52;3.40;;;0.50;;
75614;SDS011;64199;48.578;-4.520;2023-05-07T14:48:20;2.35;;;0.45;;
75614;SDS011;64199;48.578;-4.520;2023-05-07T14:50:47;0.73;;;0.43;;
75614;SDS011;64199;48.578;-4.520;2023-05-07T14:53:13;0.60;;;0.40;;
75614;SDS011;64199;48.578;-4.520;2023-05-07T14:55:42;2.65;;;0.52;;
75614;SDS011;64199;48.578;-4.520;2023-05-07T14:58:08;0.98;;;0.60;;
75614;SDS011;64199;48.578;-4.520;2023-05-07T15:00:34;1.33;;;0.60;;
75614;SDS011;64199;48.578;-4.520;2023-05-07T15:03:09;1.13;;;0.50;;
75614;SDS011;64199;48.578;-4.520;2023-05-07T15:05:42;0.45;;;0.40;;
75614;SDS011;64199;48.578;-4.520;2023-05-07T15:08:08;1.10;;;0.40;;
75614;SDS011;64199;48.578;-4.520;2023-05-07T15:10:36;0.60;;;0.50;;
75614;SDS011;64199;48.578;-4.520;2023-05-07T15:13:06;0.73;;;0.57;;
75614;SDS011;64199;48.578;-4.520;2023-05-07T15:15:33;0.77;;;0.55;;
75614;SDS011;64199;48.578;-4.520;2023-05-07T15:17:59;1.23;;;0.40;;
75614;SDS011;64199;48.578;-4.520;2023-05-07T15:20:35;0.40;;;0.40;;
75614;SDS011;64199;48.578;-4.520;2023-05-07T15:23:06;0.40;;;0.40;;
75614;SDS011;64199;48.578;-4.520;2023-05-07T15:25:37;0.75;;;0.57;;